createdAt,value
2023-01-22T20:17:17.973Z,18.60
2023-01-22T20:18:18.533Z,19.50
2023-01-22T20:19:19.020Z,14.80
2023-01-22T20:20:18.779Z,21.00
2023-01-22T20:21:18.482Z,17.90
2023-01-22T20:22:18.912Z,15.80
2023-01-22T20:23:18.453Z,16.10
2023-01-22T20:24:18.680Z,14.10
2023-01-22T20:25:20.941Z,14.80
2023-01-22T20:26:18.587Z,16.20
2023-01-22T20:27:18.565Z,14.10
2023-01-22T20:28:18.549Z,11.30
2023-01-22T20:29:18.597Z,10.00
2023-01-22T20:30:19.135Z,9.60
2023-01-22T20:31:18.958Z,9.70
2023-01-22T20:32:19.058Z,14.70
2023-01-22T20:33:18.490Z,9.00
2023-01-22T20:34:18.732Z,11.80
2023-01-22T20:35:18.704Z,11.80
2023-01-22T20:36:18.792Z,10.40
2023-01-22T20:37:18.263Z,9.90
2023-01-22T20:38:18.489Z,13.00
2023-01-22T20:39:18.824Z,9.30
2023-01-22T20:40:19.286Z,11.80
2023-01-22T20:41:18.428Z,11.20
2023-01-22T20:42:18.238Z,9.00
2023-01-22T20:43:18.330Z,11.70
2023-01-22T20:44:18.830Z,10.70
2023-01-22T20:45:18.921Z,13.10
2023-01-22T20:46:19.496Z,10.50
2023-01-22T20:47:18.068Z,12.90
2023-01-22T20:48:18.302Z,11.50
2023-01-22T20:49:18.123Z,18.40
2023-01-22T20:50:18.174Z,17.80
2023-01-22T20:51:18.080Z,18.50
2023-01-22T20:52:18.396Z,21.40
2023-01-22T20:53:18.140Z,16.70
2023-01-22T20:54:18.225Z,20.50
2023-01-22T20:55:18.303Z,18.40
2023-01-22T20:56:18.851Z,13.40
2023-01-22T20:57:19.811Z,12.40
2023-01-22T20:58:18.872Z,12.10
2023-01-22T20:59:18.891Z,11.70
2023-01-22T21:00:18.884Z,11.30
2023-01-22T21:01:17.888Z,10.80
2023-01-22T21:02:18.319Z,11.40
2023-01-22T21:03:17.917Z,12.10
2023-01-22T21:04:18.358Z,13.80
2023-01-22T21:05:18.232Z,11.50
2023-01-22T21:06:18.113Z,10.20
2023-01-22T21:07:18.015Z,10.90
2023-01-22T21:08:18.264Z,13.40
2023-01-22T21:09:17.912Z,10.50
2023-01-22T21:10:18.334Z,10.50
2023-01-22T21:11:17.886Z,13.20
2023-01-22T21:12:17.942Z,12.50
2023-01-22T21:13:17.748Z,14.30
2023-01-22T21:14:18.116Z,17.70
2023-01-22T21:15:17.751Z,14.90
2023-01-22T21:16:18.084Z,17.00
2023-01-22T21:17:17.784Z,20.80
2023-01-22T21:18:18.093Z,13.10
2023-01-22T21:19:17.807Z,13.50
2023-01-22T21:20:18.262Z,10.60
2023-01-22T21:21:17.926Z,9.30
2023-01-22T21:22:18.012Z,11.80
2023-01-22T21:23:18.639Z,13.80
2023-01-22T21:24:17.831Z,9.40
2023-01-22T21:25:17.656Z,9.70
2023-01-22T21:26:17.978Z,11.50
2023-01-22T21:27:18.584Z,13.00
2023-01-22T21:28:17.792Z,12.00
2023-01-22T21:29:17.535Z,9.00
2023-01-22T21:30:18.156Z,15.20
2023-01-22T21:31:17.725Z,15.60
2023-01-22T21:32:17.687Z,12.30
2023-01-22T21:33:18.960Z,12.00
2023-01-22T21:34:17.840Z,10.10
2023-01-22T21:35:17.519Z,10.50
2023-01-22T21:36:17.780Z,9.40
2023-01-22T21:37:17.493Z,9.10
2023-01-22T21:38:17.728Z,11.50
2023-01-22T21:39:17.491Z,10.00
2023-01-22T21:40:19.054Z,10.10
2023-01-22T21:41:17.591Z,11.50
2023-01-22T21:42:17.803Z,9.60
2023-01-22T21:43:17.644Z,10.20
2023-01-22T21:44:17.736Z,9.40
2023-01-22T21:45:17.407Z,10.20
2023-01-22T21:46:17.684Z,8.60
2023-01-22T21:47:20.082Z,8.70
2023-01-22T21:48:18.542Z,10.50
2023-01-22T21:49:17.365Z,11.00
2023-01-22T21:50:18.970Z,8.40
2023-01-22T21:51:17.326Z,7.90
2023-01-22T21:52:17.628Z,9.00
2023-01-22T21:53:17.257Z,9.30
2023-01-22T21:54:18.427Z,9.90
2023-01-22T21:55:17.293Z,10.40
2023-01-22T21:56:17.454Z,7.60
2023-01-22T21:57:17.290Z,9.50
2023-01-22T21:58:17.559Z,8.40
2023-01-22T21:59:18.527Z,8.00
2023-01-22T22:00:17.338Z,11.30
2023-01-22T22:01:19.530Z,8.00
2023-01-22T22:02:17.315Z,11.10
2023-01-22T22:03:17.627Z,9.70
2023-01-22T22:04:18.559Z,12.60
2023-01-22T22:05:17.112Z,11.30
2023-01-22T22:06:17.559Z,10.90
2023-01-22T22:07:17.327Z,7.90
2023-01-22T22:08:18.785Z,9.70
2023-01-22T22:09:17.228Z,7.90
2023-01-22T22:10:17.703Z,10.30
2023-01-22T22:11:17.075Z,9.30
2023-01-22T22:12:17.741Z,11.20
2023-01-22T22:13:17.336Z,9.00
2023-01-22T22:14:17.348Z,8.70
2023-01-22T22:15:17.613Z,8.00
2023-01-22T22:16:17.293Z,10.60
2023-01-22T22:17:17.251Z,8.40
2023-01-22T22:18:17.641Z,9.80
2023-01-22T22:19:17.014Z,11.80
2023-01-22T22:20:18.072Z,7.80
2023-01-22T22:21:17.274Z,9.50
2023-01-22T22:22:18.409Z,9.40
2023-01-22T22:23:16.900Z,8.70
2023-01-22T22:24:19.214Z,10.00
2023-01-22T22:25:16.999Z,7.80
2023-01-22T22:26:17.618Z,10.50
2023-01-22T22:27:17.082Z,11.10
2023-01-22T22:28:17.048Z,7.70
2023-01-22T22:29:16.821Z,12.80
2023-01-22T22:30:17.208Z,9.80
2023-01-22T22:31:16.842Z,9.40
2023-01-22T22:32:16.961Z,9.50
2023-01-22T22:33:16.852Z,8.60
2023-01-22T22:34:18.037Z,9.40
2023-01-22T22:35:16.937Z,10.50
2023-01-22T22:36:16.815Z,10.10
2023-01-22T22:37:18.056Z,10.60
2023-01-22T22:38:16.908Z,17.80
2023-01-22T22:39:16.863Z,9.20
2023-01-22T22:40:16.947Z,7.90
2023-01-22T22:41:17.008Z,10.10
2023-01-22T22:42:16.711Z,7.10
2023-01-22T22:43:16.944Z,8.20
2023-01-22T22:44:16.619Z,8.00
2023-01-22T22:45:17.180Z,12.10
2023-01-22T22:46:16.793Z,10.90
2023-01-22T22:47:17.191Z,8.80
2023-01-22T22:48:17.163Z,12.40
2023-01-22T22:49:17.110Z,10.70
2023-01-22T22:50:16.678Z,8.20
2023-01-22T22:51:23.080Z,9.70
2023-01-22T22:52:16.744Z,12.70
2023-01-22T22:53:16.600Z,9.30
2023-01-22T22:54:16.866Z,10.40
2023-01-22T22:55:16.835Z,9.70
2023-01-22T22:56:16.915Z,11.90
2023-01-22T22:57:16.829Z,11.20
2023-01-22T22:58:16.903Z,10.20
2023-01-22T22:59:16.596Z,10.20
2023-01-22T23:00:17.108Z,12.40
2023-01-22T23:01:16.614Z,9.70
2023-01-22T23:02:16.384Z,10.80
2023-01-22T23:03:16.692Z,12.30
2023-01-22T23:04:16.486Z,11.50
2023-01-22T23:05:16.438Z,11.30
2023-01-22T23:06:16.314Z,11.10
2023-01-22T23:07:16.582Z,10.50
2023-01-22T23:08:16.305Z,12.10
2023-01-22T23:09:16.670Z,14.90
2023-01-22T23:10:16.254Z,10.80
2023-01-22T23:11:16.645Z,12.70
2023-01-22T23:12:16.249Z,11.30
2023-01-22T23:13:16.558Z,10.70
2023-01-22T23:14:16.238Z,12.50
2023-01-22T23:15:16.456Z,10.00
2023-01-22T23:16:16.416Z,13.30
2023-01-22T23:17:16.269Z,12.70
2023-01-22T23:18:16.211Z,13.10
2023-01-22T23:19:16.468Z,13.10
2023-01-22T23:20:16.836Z,11.20
2023-01-22T23:21:16.422Z,12.60
2023-01-22T23:22:16.409Z,11.10
2023-01-22T23:23:16.304Z,12.20
2023-01-22T23:24:16.575Z,10.90
2023-01-22T23:25:16.138Z,12.60
2023-01-22T23:26:16.267Z,10.30
2023-01-22T23:27:16.503Z,10.60
2023-01-22T23:28:16.234Z,13.30
2023-01-22T23:29:16.146Z,9.20
2023-01-22T23:30:16.081Z,10.10
2023-01-22T23:31:16.405Z,12.10
2023-01-22T23:32:16.020Z,10.30
2023-01-22T23:33:16.160Z,10.40
2023-01-22T23:34:15.985Z,9.90
2023-01-22T23:35:16.234Z,10.70
2023-01-22T23:36:15.943Z,15.20
2023-01-22T23:37:16.086Z,10.90
2023-01-22T23:38:15.941Z,9.40
2023-01-22T23:39:16.012Z,12.20
2023-01-22T23:40:15.891Z,10.30
2023-01-22T23:41:16.011Z,9.60
2023-01-22T23:42:15.850Z,10.50
2023-01-22T23:43:16.145Z,10.60
2023-01-22T23:44:15.838Z,8.80
2023-01-22T23:45:15.938Z,13.20
2023-01-22T23:46:15.940Z,13.60
2023-01-22T23:47:17.296Z,11.40
2023-01-22T23:48:15.804Z,12.00
2023-01-22T23:49:16.028Z,12.50
2023-01-22T23:50:15.810Z,10.80
2023-01-22T23:51:15.961Z,11.00
2023-01-22T23:52:15.775Z,12.90
2023-01-22T23:53:15.901Z,10.50
2023-01-22T23:54:15.743Z,11.80
2023-01-22T23:55:15.823Z,12.70
2023-01-22T23:56:15.739Z,11.80
2023-01-22T23:57:15.767Z,11.10
2023-01-22T23:58:15.876Z,10.30
2023-01-22T23:59:15.727Z,10.60
